الصفحة الرئيسية
METAR-TAF:

METAR-TAF

مطار :

البحرين, البحرين

مطار البحرين الدولي

دائرة عرض: 26-16N, خط طول: 050-39E, ارتفاع: 2 متر

مراقبة الطقس الحالي

تاريخ ووقت الإصدار 5 دقيقة قبل الساعة 03:00UTC
ريح 8 عقدة من الجنوب/الجنوب الشرقي, الاتجاه يتراوح بين الجنوب الشرقي و الجنوب/الجنوب الغربي
درجة الحرارة 28°درجة مئوية
الرطوبة 48%
ضغط 1006 hPa
الرؤية 10 كم أو أكثر
الغيوم لا تقل 1500 م ولا وجود لمزنة ركامية السحاب الأسود

METAR: OBBI 220300Z 16008KT 130V200 CAVOK 28/16 Q1006 NOSIG

زمن: 06:05 (03:05 UTC)

توقعات

تاريخ ووقت الإصدار 4ساعات و 5 دقيقة قبل الساعة 23:00UTC
التوقعات صالحة من22 الساعة 00 UTC إلى 23 الساعة 06 UTC
ريح 15 عقدة من الجنوب/الجنوب الشرقي
الرؤية 10 كم أو أكثر
الغيوم لا تقل 1500 م ولا وجود لمزنة ركامية السحاب الأسود
مؤقت
من 22 الساعة 07 UTC إلى 22 الساعة 15 UTC
الرؤية: 4000 متر
هبوب الغبار

TAF: OBBI 212300Z 2200/2306 16015KT CAVOK TEMPO 2207/2215 4000 BLDU NSC

أرصاد الطقس والتوقعات من أكثر من 4000 مطار (تقارير الطقس للمطار METAR والتنبؤ بالطقس بالمطارTAF).

المحطات المتاحة هي النقط الصفراء والحمراء على الخريطة.

حرك المؤشر فوق النقطة لمعرفة اسم المحطة.

ثم انقر لمعرفة أرصاد وتوقعات الطقس.

لتغيير الخارطة: اضغط على الأزرار الخضراء مع رمز الصليب الأسود للتكبير. على الزر الأخضر مع شرطة للتصغير، أو على الأسهم الخضراء للخرائط المجاورة.


METAR-TAF: